Aérodrome :
LOGIN :

S'inscrire | Disclaimer

   EN    FR    IT 

 










Légende :    VFR   VFR Marginal   IFR   IFR Intensif   IFR Très Intensif
Visi : 
Plafond : 
>= 8 km
>= 3000ft
5 à 8 km
1000 à 3000 ft
1500m à 5 km
500 à 1000 ft
800 à 1500m
200 à 500 ft
< 800m
< 200 ft
Symboles :   Orages  Brouillard  Fortes neiges  Fortes précipitations  Vent > 20 kt
SIGMETs :   Divers  Orages  Givrage  Turbulence  Onde Orograph.  Cendres Volcan.






- Altitude de l'aérodrome : 302 ft
- Code IATA : CGN


EDDK - Cologne Bonn

DERNIER METAR :
  • 251550Z 25004KT 9999 SCT014 01/M01 Q1008 R14L/190295 R06///99// R14R///99// NOSIG

METARs EXPIRÉS :
  • 251520Z 26004KT 9999 FEW012 SCT016 02/M00 Q1007 R14L/190295 R06///99// R14R///99// NOSIG
  • 251450Z VRB02KT 9999 FEW012 BKN022 02/M00 Q1007 R14L/190295 R06///99// R14R///99// NOSIG
  • 251420Z 32006KT 9999 FEW010 BKN022 02/M01 Q1006 R14L/190295 R06///99// R14R///99// NOSIG
  • 251350Z 32007KT 9999 FEW009 SCT014 BKN022 02/M00 Q1006 R14L/190295 R06///99// R14R///99// NOSIG
  • 251320Z 33004KT 9999 -SN FEW011 SCT017 BKN020 02/M00 Q1006 R14L/190295 R06/99 R14R///99// NOSIG

TAF TAF EDDK
Valide du 25 à 12h jusqu'au 26 à 18h UTC


251100Z 2512/2618 34004KT 9999 BKN030
TEMPO 2512/2514 BKN009
BECMG 2518/2521 23006KT
TEMPO 2600/2606 4500 SNRA BKN012
PROB30
TEMPO 2600/2603 2000 SN OVC008
BECMG 2602/2604 28011KT
PROB30
TEMPO 2605/2608 27015G25KT
TEMPO 2606/2615 BKN012



MET'MAP, la Météo Aéronautique d'un coup d'oeil ! - Copyright ORBIFLY Décembre 2007 - Disclaimer

ORBIFLY MET'MAP TEAM :

Programmation & Développement : Alexandra Zaïnal
Sur une idée originale de : Baudouin d'Aumeries
Assistance à la programmation : Marc-Olivier Méhu
Soutien technique & logistique : Manuel Goepfert

Contact : metmap@orbifly.com




SOURCES & CREDITS :

   NOAA